Time;durP1;ratioP1;P1;durP2;ratioP2;P2;SDS_P1;SDS_P2;PMS_P1;PMS_P2;Temp;Humidity;BMP_temperature;BMP_pressure;BME280_temperature;BME280_humidity;BME280_pressure;Samples;Min_cycle;Max_cycle;Signal;HPM_P1;HPM_P2
2021/06/12 00:01:42;;;;;;;18.70;17.10;;;;;;;;;;4994534;28;20453;-89
2021/06/12 00:04:10;;;;;;;18.50;16.87;;;16.10;99.90;;;;;;4994404;28;20799;-89
2021/06/12 00:06:36;;;;;;;17.43;15.80;;;;;;;;;;4994603;28;20457;-90
2021/06/12 00:09:04;;;;;;;18.67;16.97;;;16.10;99.90;;;;;;4994267;28;20489;-90
2021/06/12 00:11:30;;;;;;;17.17;15.53;;;;;;;;;;4995188;28;20457;-90
2021/06/12 00:13:58;;;;;;;15.00;13.60;;;;;;;;;;4991238;28;20460;-91
2021/06/12 00:16:25;;;;;;;14.60;13.10;;;;;;;;;;4994197;28;20485;-89
2021/06/12 00:18:54;;;;;;;14.20;12.80;;;16.00;99.90;;;;;;4993837;28;20960;-88
2021/06/12 00:21:22;;;;;;;14.53;13.17;;;15.90;99.90;;;;;;4994056;28;20453;-91
2021/06/12 00:23:48;;;;;;;13.70;12.60;;;15.90;99.90;;;;;;4987924;28;20473;-90
2021/06/12 00:26:15;;;;;;;15.23;13.80;;;16.00;99.90;;;;;;4993426;28;20475;-89
2021/06/12 00:28:41;;;;;;;15.10;13.57;;;;;;;;;;4987664;28;20481;-90
2021/06/12 00:31:08;;;;;;;14.47;13.07;;;;;;;;;;4993933;28;20990;-90
2021/06/12 00:33:35;;;;;;;14.43;13.13;;;;;;;;;;4991155;28;20483;-89
2021/06/12 00:36:01;;;;;;;13.60;12.50;;;;;;;;;;4993690;28;20468;-90
2021/06/12 00:38:29;;;;;;;15.37;13.00;;;15.80;99.90;;;;;;4992866;28;20464;-89
2021/06/12 00:40:56;;;;;;;15.73;14.33;;;;;;;;;;4991335;28;20592;-90
2021/06/12 00:43:24;;;;;;;14.20;13.00;;;15.70;99.90;;;;;;4990975;28;21002;-90
2021/06/12 00:45:51;;;;;;;16.27;14.70;;;;;;;;;;4994038;28;20453;-90
2021/06/12 00:48:18;;;;;;;14.23;12.93;;;15.60;99.90;;;;;;4990785;28;20460;-90
2021/06/12 00:50:44;;;;;;;14.47;13.07;;;;;;;;;;4993718;28;20946;-88
2021/06/12 00:53:11;;;;;;;14.50;13.20;;;;;;;;;;4992711;28;20460;-89
2021/06/12 00:55:39;;;;;;;16.80;12.70;;;15.50;99.90;;;;;;4993471;28;20503;-89
2021/06/12 00:58:09;;;;;;;14.30;13.00;;;15.50;99.90;;;;;;4994118;28;20445;-88
2021/06/12 01:00:36;;;;;;;13.53;12.40;;;;;;;;;;4989239;28;20457;-91
2021/06/12 01:03:03;;;;;;;14.43;12.93;;;15.60;99.90;;;;;;4991138;28;20448;-89
2021/06/12 01:05:30;;;;;;;13.10;12.00;;;;;;;;;;4989784;28;20453;-88
2021/06/12 01:07:56;;;;;;;11.97;10.97;;;15.40;99.90;;;;;;4992172;28;20441;-88
2021/06/12 01:10:23;;;;;;;12.57;11.47;;;;;;;;;;4990255;28;21052;-89
2021/06/12 01:12:58;;;;;;;12.37;11.33;;;15.40;99.90;;;;;;4993257;28;20441;-88
2021/06/12 01:15:29;;;;;;;13.43;12.27;;;15.50;99.90;;;;;;4993424;28;20445;-91
2021/06/12 01:17:59;;;;;;;12.47;11.37;;;15.50;99.90;;;;;;4993653;28;20453;-90
2021/06/12 01:20:58;;;;;;;13.40;12.10;;;15.50;99.90;;;;;;4988148;28;20452;-89
2021/06/12 01:24:16;;;;;;;15.80;11.60;;;15.40;99.90;;;;;;4992155;28;20818;-89
2021/06/12 01:27:07;;;;;;;12.07;11.07;;;15.40;99.90;;;;;;4993502;28;20854;-89
2021/06/12 01:30:13;;;;;;;13.20;12.07;;;17.10;99.90;;;;;;4993246;28;20543;-90
2021/06/12 01:32:45;;;;;;;12.93;11.63;;;15.40;99.90;;;;;;4971800;28;20551;-89
2021/06/12 01:35:18;;;;;;;13.13;12.07;;;15.40;99.90;;;;;;4993190;28;20449;-89
2021/06/12 01:37:46;;;;;;;12.60;11.57;;;15.40;99.90;;;;;;4992366;28;20429;-88
2021/06/12 01:40:14;;;;;;;13.43;12.37;;;15.70;99.90;;;;;;4991975;28;20531;-89
2021/06/12 01:42:44;;;;;;;13.00;11.80;;;15.50;99.90;;;;;;4990316;28;20453;-89
2021/06/12 01:45:11;;;;;;;13.50;12.13;;;15.50;99.90;;;;;;4996941;28;20476;-88
2021/06/12 01:47:38;;;;;;;14.00;12.50;;;;;;;;;;4996574;28;20945;-89
2021/06/12 01:50:09;;;;;;;12.77;11.77;;;15.30;99.90;;;;;;4996284;28;20547;-88
2021/06/12 01:52:38;;;;;;;13.07;11.70;;;15.70;99.90;;;;;;4995331;28;20520;-89
2021/06/12 01:55:06;;;;;;;16.60;11.93;;;15.50;99.90;;;;;;4993328;28;20445;-89
2021/06/12 01:57:33;;;;;;;12.90;11.70;;;15.60;99.90;;;;;;4996192;28;20457;-88
2021/06/12 02:00:00;;;;;;;12.50;11.43;;;;;;;;;;4996535;28;20488;-89
2021/06/12 02:02:27;;;;;;;13.37;12.07;;;15.50;99.90;;;;;;4996081;28;20477;-90
2021/06/12 02:04:55;;;;;;;12.90;11.90;;;;;;;;;;4996251;28;20476;-88
2021/06/12 02:07:24;;;;;;;12.03;10.93;;;15.70;99.90;;;;;;4995523;28;20861;-88
2021/06/12 02:09:51;;;;;;;11.60;10.60;;;15.70;99.90;;;;;;4996221;28;20492;-89
2021/06/12 02:12:19;;;;;;;12.03;11.03;;;15.70;99.90;;;;;;4996072;28;20797;-91
2021/06/12 02:14:46;;;;;;;12.10;11.10;;;15.80;99.90;;;;;;4996248;28;20449;-88
2021/06/12 02:17:14;;;;;;;11.90;10.90;;;15.60;99.90;;;;;;4995724;28;20457;-89
2021/06/12 02:19:41;;;;;;;11.87;10.87;;;15.80;99.90;;;;;;4989401;28;20461;-90
2021/06/12 02:22:08;;;;;;;11.70;10.80;;;15.80;99.90;;;;;;4988839;28;20805;-89
2021/06/12 02:24:36;;;;;;;12.50;11.43;;;15.10;99.90;;;;;;4991110;28;20457;-89
2021/06/12 02:27:05;;;;;;;11.77;10.87;;;15.70;99.90;;;;;;4995555;28;20465;-90
2021/06/12 02:29:31;;;;;;;14.30;10.47;;;15.60;99.90;;;;;;4995528;28;20493;-90
2021/06/12 02:32:03;;;;;;;12.03;10.80;;;15.90;99.90;;;;;;4993169;28;20449;-88
2021/06/12 02:34:31;;;;;;;11.83;10.90;;;15.80;99.90;;;;;;4995661;28;20449;-90
2021/06/12 02:36:57;;;;;;;11.63;10.73;;;16.00;99.90;;;;;;4989341;28;20913;-90
2021/06/12 02:39:24;;;;;;;12.50;11.50;;;15.80;99.90;;;;;;4994949;28;20513;-89
2021/06/12 02:41:52;;;;;;;12.43;11.43;;;15.70;99.90;;;;;;4992004;28;20450;-89
2021/06/12 02:44:19;;;;;;;11.77;10.70;;;;;;;;;;4992208;28;20489;-90
2021/06/12 02:46:46;;;;;;;12.63;11.47;;;15.70;99.90;;;;;;4992651;28;20465;-89
2021/06/12 02:49:17;;;;;;;11.00;10.20;;;15.70;99.90;;;;;;4991201;28;20504;-88
2021/06/12 02:51:48;;;;;;;11.07;10.17;;;15.50;99.90;;;;;;4995100;28;20460;-88
2021/06/12 02:54:15;;;;;;;11.97;10.80;;;15.60;99.90;;;;;;4994452;28;20458;-88
2021/06/12 02:56:44;;;;;;;12.17;11.10;;;16.10;99.90;;;;;;4992168;28;20460;-88
2021/06/12 02:59:17;;;;;;;11.80;10.90;;;15.60;99.90;;;;;;4995367;28;20445;-88
2021/06/12 03:01:46;;;;;;;11.83;10.60;;;15.50;99.90;;;;;;4992368;28;20461;-90
2021/06/12 03:04:14;;;;;;;11.90;10.90;;;15.60;99.90;;;;;;4995058;28;20449;-89
2021/06/12 03:06:41;;;;;;;11.97;10.90;;;;;;;;;;4991600;28;20798;-89
2021/06/12 03:09:08;;;;;;;11.80;10.80;;;15.50;99.90;;;;;;4993962;28;20554;-89
2021/06/12 03:11:35;;;;;;;11.13;10.23;;;15.60;99.90;;;;;;4994742;28;20460;-89
2021/06/12 03:14:03;;;;;;;11.27;10.27;;;15.60;99.90;;;;;;4994802;28;20449;-90
2021/06/12 03:16:32;;;;;;;12.10;11.00;;;15.50;99.90;;;;;;4988164;28;20537;-88
2021/06/12 03:18:59;;;;;;;11.13;10.17;;;15.60;99.90;;;;;;4994949;28;20922;-89
2021/06/12 03:21:28;;;;;;;11.43;10.40;;;15.60;99.90;;;;;;4994432;28;20454;-89
2021/06/12 03:23:58;;;;;;;11.83;10.73;;;14.90;99.90;;;;;;4993493;28;20441;-88
2021/06/12 03:26:25;;;;;;;12.13;11.07;;;15.60;99.90;;;;;;4994964;28;20445;-89
2021/06/12 03:28:52;;;;;;;11.33;10.33;;;15.60;99.90;;;;;;4994301;28;20496;-90
2021/06/12 03:31:19;;;;;;;11.60;10.50;;;15.50;99.90;;;;;;4995082;28;20813;-89
2021/06/12 03:33:47;;;;;;;11.23;10.27;;;15.50;99.90;;;;;;4990366;28;20484;-88
2021/06/12 03:36:15;;;;;;;11.83;10.70;;;15.40;99.90;;;;;;4994350;28;20460;-89
2021/06/12 03:38:41;;;;;;;11.33;10.47;;;;;;;;;;4993935;28;20930;-89
2021/06/12 03:41:10;;;;;;;12.23;11.23;;;15.50;99.90;;;;;;4994727;28;20456;-89
2021/06/12 03:43:37;;;;;;;10.30;9.50;;;15.30;99.90;;;;;;4994510;28;20477;-88
2021/06/12 03:46:04;;;;;;;11.63;10.63;;;15.20;99.90;;;;;;4994523;28;20460;-89
2021/06/12 03:48:32;;;;;;;11.60;10.60;;;;;;;;;;4999349;28;20452;-89
2021/06/12 03:51:02;;;;;;;11.47;10.50;;;15.20;99.90;;;;;;5001983;28;20491;-92
2021/06/12 03:53:31;;;;;;;11.80;10.83;;;15.10;99.90;;;;;;4998212;28;20441;-89
2021/06/12 03:56:01;;;;;;;12.57;11.47;;;15.10;99.90;;;;;;5002812;28;20952;-91
2021/06/12 03:58:30;;;;;;;12.97;11.77;;;15.10;99.90;;;;;;4997657;28;20466;-89
2021/06/12 04:01:00;;;;;;;11.37;10.23;;;;;;;;;;4996942;28;20453;-91
2021/06/12 04:03:27;;;;;;;11.80;10.90;;;;;;;;;;4999562;28;20449;-89
2021/06/12 04:05:53;;;;;;;10.93;10.13;;;;;;;;;;5005615;28;20537;-89
2021/06/12 04:08:24;;;;;;;11.77;10.77;;;15.00;99.90;;;;;;5005474;28;20456;-91
2021/06/12 04:10:53;;;;;;;12.33;11.37;;;15.00;99.90;;;;;;5005582;28;20452;-89
2021/06/12 04:13:20;;;;;;;12.63;11.63;;;;;;;;;;4995119;28;20460;-88
2021/06/12 04:15:46;;;;;;;11.10;10.20;;;14.80;99.90;;;;;;4994046;28;20461;-88
2021/06/12 04:18:14;;;;;;;11.67;10.57;;;15.20;99.90;;;;;;4993616;28;20875;-89
2021/06/12 04:20:40;;;;;;;11.73;10.73;;;15.10;99.90;;;;;;4993862;28;20519;-88
2021/06/12 04:23:07;;;;;;;10.97;10.07;;;15.20;99.90;;;;;;4990299;28;20465;-89
2021/06/12 04:25:36;;;;;;;11.30;10.40;;;15.10;99.90;;;;;;4993871;28;20820;-88
2021/06/12 04:28:03;;;;;;;11.80;10.80;;;15.10;99.90;;;;;;4988344;28;20933;-89
2021/06/12 04:30:29;;;;;;;11.03;10.03;;;15.20;99.90;;;;;;4993704;28;20493;-88
2021/06/12 04:32:55;;;;;;;11.07;10.17;;;15.20;99.90;;;;;;4994037;28;20457;-88
2021/06/12 04:35:23;;;;;;;11.30;10.40;;;15.10;99.90;;;;;;4988209;28;20445;-88
2021/06/12 04:37:49;;;;;;;11.43;10.40;;;;;;;;;;4992887;28;20530;-89
2021/06/12 04:40:16;;;;;;;11.63;10.70;;;15.10;99.90;;;;;;4993952;28;20446;-89
2021/06/12 04:42:44;;;;;;;11.17;10.17;;;15.40;99.90;;;;;;4991096;28;20437;-89
2021/06/12 04:45:11;;;;;;;10.83;9.93;;;15.30;99.90;;;;;;4993687;28;20508;-90
2021/06/12 04:47:38;;;;;;;11.20;10.10;;;;;;;;;;4991386;28;20461;-90
2021/06/12 04:50:06;;;;;;;11.20;10.30;;;15.70;99.90;;;;;;5004789;28;21018;-90
2021/06/12 04:52:32;;;;;;;11.80;10.80;;;15.80;99.90;;;;;;4990122;28;20450;-89
2021/06/12 04:54:59;;;;;;;12.63;11.03;;;;;;;;;;4994673;28;20464;-90
2021/06/12 04:57:25;;;;;;;11.33;10.40;;;;;;;;;;4994234;28;20449;-91
2021/06/12 04:59:53;;;;;;;11.27;10.37;;;16.00;99.90;;;;;;4993702;28;20457;-90
2021/06/12 05:02:19;;;;;;;11.83;10.63;;;16.50;99.90;;;;;;4994050;28;20508;-89
2021/06/12 05:04:46;;;;;;;10.30;9.47;;;16.70;99.90;;;;;;4993817;28;20484;-91
2021/06/12 05:07:12;;;;;;;12.00;10.83;;;16.70;99.90;;;;;;4993969;28;20449;-89
2021/06/12 05:09:39;;;;;;;12.67;9.97;;;;;;;;;;4993337;28;20492;-91
2021/06/12 05:12:06;;;;;;;10.50;9.70;;;17.10;99.90;;;;;;4994443;28;21146;-90
2021/06/12 05:14:33;;;;;;;10.97;10.07;;;17.40;99.90;;;;;;4994091;28;20446;-91
2021/06/12 05:17:03;;;;;;;10.50;9.70;;;17.40;99.90;;;;;;4994664;28;20475;-90
2021/06/12 05:19:30;;;;;;;11.00;10.10;;;17.40;99.90;;;;;;4995479;28;20858;-90
2021/06/12 05:21:56;;;;;;;11.47;10.50;;;;;;;;;;4998298;28;20457;-93
2021/06/12 05:24:23;;;;;;;10.70;9.80;;;;;;;;;;4996671;28;20468;-90
2021/06/12 05:26:50;;;;;;;6.40;5.80;;;17.90;99.90;;;;;;4998576;28;20456;-90
2021/06/12 05:29:16;;;;;;;9.63;8.80;;;18.50;99.90;;;;;;4998632;28;21014;-90
2021/06/12 05:31:42;;;;;;;9.63;8.93;;;18.70;99.90;;;;;;4998633;28;20924;-91
2021/06/12 05:34:10;;;;;;;10.77;9.97;;;19.10;99.90;;;;;;4998177;28;20450;-91
2021/06/12 05:36:37;;;;;;;12.33;10.87;;;19.30;99.90;;;;;;4991821;28;20441;-89
2021/06/12 05:39:04;;;;;;;18.10;9.40;;;19.80;99.90;;;;;;4996209;28;20514;-92
2021/06/12 05:41:31;;;;;;;10.80;9.90;;;20.10;99.90;;;;;;4994973;28;20453;-91
2021/06/12 05:44:40;;;;;;;9.50;8.80;;;20.20;99.90;;;;;;4996396;28;20473;-91
2021/06/12 05:47:09;;;;;;;10.70;9.90;;;;;;;;;;4998036;28;20441;-90
2021/06/12 05:49:40;;;;;;;9.67;8.90;;;;;;;;;;5008100;28;20491;-91
2021/06/12 05:52:15;;;;;;;9.63;8.63;;;21.40;99.90;;;;;;5006362;28;20457;-90
2021/06/12 05:54:42;;;;;;;8.80;8.00;;;;;;;;;;5005427;28;20462;-90
2021/06/12 05:57:11;;;;;;;8.70;8.00;;;21.70;99.90;;;;;;5005710;28;20442;-91
2021/06/12 05:59:40;;;;;;;8.23;7.60;;;;;;;;;;5002610;28;20473;-89
2021/06/12 06:02:10;;;;;;;8.17;7.57;;;21.70;99.90;;;;;;5000982;28;20847;-91
2021/06/12 06:04:40;;;;;;;7.57;6.90;;;22.20;99.90;;;;;;5001698;28;20569;-91
2021/06/12 06:07:06;;;;;;;10.33;8.20;;;;;;;;;;5006401;28;20444;-90
2021/06/12 06:09:33;;;;;;;7.77;7.17;;;22.90;99.90;;;;;;5010046;28;21061;-91
2021/06/12 06:12:02;;;;;;;8.17;7.57;;;22.70;99.90;;;;;;5016978;28;20441;-90
2021/06/12 06:14:28;;;;;;;11.27;8.30;;;23.20;99.90;;;;;;5016914;28;20440;-91
2021/06/12 06:16:55;;;;;;;8.47;7.77;;;22.90;99.90;;;;;;5016598;28;20450;-90
2021/06/12 06:19:22;;;;;;;9.97;9.07;;;;;;;;;;5018927;28;20539;-90
2021/06/12 06:21:50;;;;;;;7.67;6.97;;;23.00;99.90;;;;;;5016880;28;20491;-87
2021/06/12 06:24:16;;;;;;;7.27;6.77;;;23.10;99.90;;;;;;5014874;28;20456;-93
2021/06/12 06:26:42;;;;;;;7.17;6.57;;;22.90;99.90;;;;;;5015574;28;20459;-88
2021/06/12 06:29:08;;;;;;;6.77;6.37;;;23.30;99.90;;;;;;5022974;28;20472;-91
2021/06/12 06:31:35;;;;;;;7.17;6.57;;;22.60;99.90;;;;;;5021362;28;20448;-89
2021/06/12 06:34:01;;;;;;;6.20;5.80;;;23.20;99.90;;;;;;5018727;28;20444;-92
2021/06/12 06:36:27;;;;;;;6.83;6.33;;;23.60;99.90;;;;;;5020017;28;20448;-91
2021/06/12 06:38:57;;;;;;;6.70;6.10;;;23.70;99.90;;;;;;5015205;28;20461;-95
2021/06/12 06:41:23;;;;;;;6.50;6.00;;;23.50;99.90;;;;;;5021470;28;20834;-92
2021/06/12 06:43:50;;;;;;;5.97;5.57;;;23.70;99.90;;;;;;5018859;28;20518;-91
2021/06/12 06:46:16;;;;;;;6.27;5.67;;;;;;;;;;5015504;28;20803;-89
2021/06/12 06:48:43;;;;;;;7.60;5.87;;;;;;;;;;5019423;28;20452;-88
2021/06/12 06:51:09;;;;;;;7.03;6.53;;;24.30;99.90;;;;;;5018392;28;20449;-88
2021/06/12 06:53:36;;;;;;;5.87;5.37;;;;;;;;;;5018383;28;20456;-89
2021/06/12 06:56:06;;;;;;;6.53;6.03;;;24.50;99.90;;;;;;4926783;29;20460;-91
2021/06/12 06:58:33;;;;;;;6.40;5.90;;;24.60;99.90;;;;;;4958209;29;20443;-89
2021/06/12 07:00:59;;;;;;;6.03;5.60;;;24.80;99.90;;;;;;4957544;29;20599;-90
2021/06/12 07:03:27;;;;;;;7.03;6.53;;;24.40;99.90;;;;;;4957655;29;20455;-95
2021/06/12 07:05:54;;;;;;;6.43;6.03;;;24.40;99.90;;;;;;4953727;29;20927;-92
2021/06/12 07:08:21;;;;;;;6.37;5.83;;;24.40;99.90;;;;;;4961882;29;20458;-89
2021/06/12 07:10:47;;;;;;;7.00;6.30;;;24.60;99.90;;;;;;4958269;29;20495;-90
2021/06/12 07:13:19;;;;;;;5.70;5.20;;;24.30;99.90;;;;;;4960764;28;20500;-90
2021/06/12 07:15:45;;;;;;;5.40;5.00;;;25.20;99.90;;;;;;5017956;28;20483;-92
2021/06/12 07:18:12;;;;;;;5.83;5.30;;;25.70;99.90;;;;;;5020465;28;20930;-92
2021/06/12 07:20:38;;;;;;;5.40;5.00;;;25.70;99.90;;;;;;5015119;28;20451;-94
2021/06/12 07:23:04;;;;;;;5.80;5.20;;;;;;;;;;5017542;28;20471;-91
2021/06/12 07:25:32;;;;;;;5.07;4.77;;;26.00;99.90;;;;;;5018165;28;20456;-93
2021/06/12 07:27:59;;;;;;;6.67;4.60;;;;;;;;;;5018292;28;20853;-90
2021/06/12 07:30:27;;;;;;;5.43;5.13;;;25.80;99.90;;;;;;5018302;28;20852;-92
2021/06/12 07:32:54;;;;;;;5.43;5.03;;;26.40;99.90;;;;;;5015106;28;20451;-93
2021/06/12 07:35:20;;;;;;;5.70;5.20;;;26.80;99.90;;;;;;5020418;28;20453;-94
2021/06/12 07:37:46;;;;;;;5.23;4.83;;;;;;;;;;5018277;28;20456;-93
2021/06/12 07:40:13;;;;;;;5.87;4.80;;;26.50;99.90;;;;;;5013718;28;20464;-92
2021/06/12 07:42:40;;;;;;;4.80;4.40;;;25.60;99.90;;;;;;5018053;28;20464;-91
2021/06/12 07:45:09;;;;;;;5.00;4.60;;;26.30;99.90;;;;;;5015203;28;20480;-91
2021/06/12 07:47:39;;;;;;;4.57;4.17;;;26.70;99.10;;;;;;5020592;28;20455;-94
2021/06/12 07:50:06;;;;;;;5.77;4.53;;;27.00;99.90;;;;;;5020571;28;20525;-91
2021/06/12 07:52:32;;;;;;;4.47;4.07;;;27.50;99.90;;;;;;5018022;28;20605;-87
2021/06/12 07:54:59;;;;;;;4.73;4.33;;;;;;;;;;5019882;28;20461;-91
2021/06/12 07:57:25;;;;;;;4.33;4.03;;;27.90;99.90;;;;;;5020525;28;20466;-89
2021/06/12 07:59:52;;;;;;;7.03;4.13;;;;;;;;;;5019499;28;20456;-88
2021/06/12 08:02:19;;;;;;;4.53;3.93;;;;;;;;;;5020275;28;20456;-94
2021/06/12 08:04:48;;;;;;;4.10;3.80;;;27.80;99.90;;;;;;5026237;28;20433;-93
2021/06/12 08:07:19;;;;;;;4.73;4.33;;;27.20;99.90;;;;;;4984362;28;20537;-95
2021/06/12 08:09:45;;;;;;;4.23;3.93;;;27.30;99.90;;;;;;4982594;28;20486;-90
2021/06/12 08:12:13;;;;;;;3.77;3.47;;;27.00;99.90;;;;;;4985134;28;20461;-91
2021/06/12 08:14:40;;;;;;;4.73;4.43;;;;;;;;;;4975662;28;20957;-89
2021/06/12 08:17:07;;;;;;;4.27;4.00;;;;;;;;;;4980451;28;20453;-87
2021/06/12 08:19:35;;;;;;;4.40;4.10;;;;;;;;;;4979703;28;20457;-89
2021/06/12 08:22:03;;;;;;;5.43;3.80;;;28.20;97.60;;;;;;4985184;28;20444;-88
2021/06/12 08:24:30;;;;;;;4.03;3.73;;;;;;;;;;4939911;29;20470;-92
2021/06/12 08:26:57;;;;;;;4.23;3.93;;;;;;;;;;4938541;29;20452;-93
2021/06/12 08:29:24;;;;;;;6.13;3.93;;;;;;;;;;4939713;29;20487;-92
2021/06/12 08:31:50;;;;;;;5.67;4.13;;;;;;;;;;4939261;29;21083;-91
2021/06/12 08:34:17;;;;;;;5.03;3.77;;;;;;;;;;4991169;23;20477;-95
2021/06/12 08:36:44;;;;;;;4.67;3.97;;;;;;;;;;5028481;23;20483;-93
2021/06/12 08:39:11;;;;;;;4.23;3.80;;;26.40;97.60;;;;;;5045827;28;20436;-93
2021/06/12 08:41:40;;;;;;;4.10;3.67;;;;;;;;;;5046370;28;20444;-92
2021/06/12 08:44:11;;;;;;;4.60;4.20;;;27.40;99.90;;;;;;5044326;28;20443;-84
2021/06/12 08:46:39;;;;;;;5.90;3.80;;;27.80;94.90;;;;;;5041960;28;20459;-87
2021/06/12 08:49:06;;;;;;;4.13;3.83;;;;;;;;;;5047509;28;20462;-89
2021/06/12 08:51:33;;;;;;;4.43;4.13;;;;;;;;;;5046701;28;20458;-88
2021/06/12 08:53:59;;;;;;;4.17;3.87;;;;;;;;;;5045409;28;20546;-87
2021/06/12 08:56:27;;;;;;;7.40;3.97;;;27.60;99.90;;;;;;5046469;28;20599;-85
2021/06/12 08:58:54;;;;;;;3.87;3.57;;;;;;;;;;5046640;28;20526;-85
2021/06/12 09:01:21;;;;;;;3.60;3.40;;;;;;;;;;5046984;28;20459;-90
2021/06/12 09:03:51;;;;;;;3.43;3.23;;;27.40;99.90;;;;;;5046221;28;20500;-88
2021/06/12 09:06:19;;;;;;;3.90;3.50;;;27.50;93.20;;;;;;5004001;28;20515;-89
2021/06/12 09:08:48;;;;;;;3.50;3.20;;;26.90;92.70;;;;;;5004347;28;20945;-87
2021/06/12 09:11:16;;;;;;;6.10;3.30;;;26.70;99.90;;;;;;5003744;28;20504;-89
2021/06/12 09:13:47;;;;;;;4.20;3.80;;;26.20;99.90;;;;;;4999255;28;20449;-88
2021/06/12 09:16:36;;;;;;;5.17;3.30;;;26.40;99.90;;;;;;5002389;28;20584;-88
2021/06/12 09:19:06;;;;;;;2.97;2.77;;;27.00;99.90;;;;;;4999082;28;20488;-87
2021/06/12 09:21:35;;;;;;;3.43;3.07;;;27.50;99.90;;;;;;5004883;28;20445;-89
2021/06/12 09:24:05;;;;;;;5.00;2.97;;;27.50;95.80;;;;;;4996569;28;20581;-88
2021/06/12 09:26:47;;;;;;;2.90;2.70;;;28.20;99.90;;;;;;5001888;28;20449;-89
2021/06/12 09:29:19;;;;;;;3.60;2.97;;;27.20;94.10;;;;;;5003611;28;20449;-88
2021/06/12 09:31:46;;;;;;;2.90;2.70;;;26.90;97.50;;;;;;4999235;28;20469;-88
2021/06/12 09:34:15;;;;;;;3.37;2.90;;;26.40;99.90;;;;;;5001020;28;20453;-87
2021/06/12 09:36:44;;;;;;;2.90;2.70;;;26.20;99.90;;;;;;4999318;28;20564;-86
2021/06/12 09:39:14;;;;;;;2.97;2.63;;;26.00;99.90;;;;;;4998890;28;20473;-94
2021/06/12 09:41:43;;;;;;;3.53;3.13;;;26.40;99.90;;;;;;5003605;28;20508;-89
2021/06/12 09:44:09;;;;;;;3.17;2.87;;;27.40;99.90;;;;;;5004406;28;20442;-88
2021/06/12 09:46:40;;;;;;;3.07;2.77;;;27.60;99.90;;;;;;5000158;28;20461;-87
2021/06/12 09:49:08;;;;;;;2.60;2.40;;;28.00;95.10;;;;;;4999967;28;20460;-88
2021/06/12 09:51:35;;;;;;;4.37;2.70;;;28.80;99.90;;;;;;5000969;28;20830;-89
2021/06/12 09:54:05;;;;;;;2.93;2.73;;;28.60;95.50;;;;;;4998839;28;20499;-91
2021/06/12 09:56:32;;;;;;;3.10;2.73;;;28.20;99.90;;;;;;4999401;28;20937;-89
2021/06/12 09:59:00;;;;;;;3.47;3.17;;;27.60;99.90;;;;;;4999464;28;20512;-89
2021/06/12 10:01:30;;;;;;;3.47;3.17;;;27.50;99.90;;;;;;4999624;28;20514;-90
2021/06/12 10:04:14;;;;;;;4.00;3.00;;;27.60;95.10;;;;;;4996936;28;20814;-89
2021/06/12 10:06:41;;;;;;;3.30;2.80;;;27.20;99.90;;;;;;4996611;28;20460;-86
2021/06/12 10:09:08;;;;;;;3.10;2.90;;;27.60;94.70;;;;;;4999290;28;20449;-83
2021/06/12 10:11:35;;;;;;;3.50;3.20;;;26.80;95.40;;;;;;4998686;28;20449;-87
2021/06/12 10:14:03;;;;;;;2.80;2.60;;;27.90;95.30;;;;;;4996928;28;20483;-89
2021/06/12 10:16:31;;;;;;;3.37;3.17;;;28.20;93.90;;;;;;5000476;28;20463;-86
2021/06/12 10:18:59;;;;;;;3.30;3.00;;;28.20;94.20;;;;;;5000438;28;20540;-83
2021/06/12 10:21:27;;;;;;;2.63;2.43;;;28.00;93.90;;;;;;4999458;28;20472;-86
2021/06/12 10:23:54;;;;;;;2.87;2.67;;;27.40;99.90;;;;;;4997869;28;21040;-88
2021/06/12 10:26:21;;;;;;;2.90;2.70;;;27.90;99.90;;;;;;4998717;28;20484;-88
2021/06/12 10:28:49;;;;;;;2.80;2.60;;;28.10;99.90;;;;;;4999595;28;20442;-87
2021/06/12 10:31:17;;;;;;;3.77;3.07;;;28.20;95.70;;;;;;4994808;28;20500;-89
2021/06/12 10:33:45;;;;;;;2.90;2.70;;;28.10;93.60;;;;;;4999643;28;20571;-89
2021/06/12 10:36:14;;;;;;;4.33;2.70;;;27.70;95.30;;;;;;5003071;28;20449;-86
2021/06/12 10:38:42;;;;;;;4.77;3.00;;;28.00;99.90;;;;;;5038741;28;20447;-87
2021/06/12 10:41:20;;;;;;;5.07;3.43;;;28.60;99.90;;;;;;5037694;28;20463;-86
2021/06/12 10:43:48;;;;;;;3.27;3.00;;;28.70;93.70;;;;;;5039035;28;20451;-86
2021/06/12 10:46:19;;;;;;;3.57;3.17;;;29.00;99.90;;;;;;5038233;28;20472;-86
2021/06/12 10:48:48;;;;;;;3.77;3.03;;;28.50;92.00;;;;;;5040005;28;20463;-88
2021/06/12 10:51:45;;;;;;;4.77;2.80;;;28.40;92.60;;;;;;5037965;28;20486;-89
2021/06/12 10:54:23;;;;;;;3.40;3.10;;;28.40;92.10;;;;;;5038023;28;20447;-89
2021/06/12 10:56:55;;;;;;;3.37;2.87;;;28.70;92.30;;;;;;5038238;28;20894;-88
2021/06/12 10:59:42;;;;;;;2.60;2.40;;;28.70;92.60;;;;;;5039165;28;20451;-85
2021/06/12 11:02:12;;;;;;;2.40;2.20;;;28.20;90.90;;;;;;5021056;28;20455;-89
2021/06/12 11:04:58;;;;;;;3.33;2.80;;;28.30;90.20;;;;;;5037397;28;20511;-87
2021/06/12 11:07:32;;;;;;;2.93;2.67;;;28.50;89.90;;;;;;5038069;28;20859;-89
2021/06/12 11:10:24;;;;;;;2.53;2.40;;;28.10;95.40;;;;;;5036977;28;20503;-89
2021/06/12 11:12:53;;;;;;;2.40;2.20;;;28.00;99.90;;;;;;5038368;28;20827;-86
2021/06/12 11:15:32;;;;;;;2.23;2.03;;;28.10;90.20;;;;;;5036356;28;20798;-84
2021/06/12 11:18:21;;;;;;;3.67;3.20;;;27.80;90.00;;;;;;5036106;28;20444;-88
2021/06/12 11:21:03;;;;;;;2.40;2.30;;;28.20;98.20;;;;;;5037037;28;20455;-82
2021/06/12 11:23:44;;;;;;;3.30;3.00;;;27.80;90.80;;;;;;5036409;28;20443;-89
2021/06/12 11:26:14;;;;;;;3.63;2.77;;;27.70;91.60;;;;;;5018556;28;20440;-89
2021/06/12 11:28:41;;;;;;;3.50;2.40;;;28.40;92.40;;;;;;5039316;28;20456;-90
2021/06/12 11:31:29;;;;;;;6.30;3.70;;;28.80;90.30;;;;;;5036666;28;20491;-83
2021/06/12 11:34:20;;;;;;;2.57;2.40;;;28.40;99.90;;;;;;5037428;28;20605;-87
2021/06/12 11:36:48;;;;;;;4.73;3.10;;;28.50;88.70;;;;;;5046155;28;20478;-88
2021/06/12 11:39:15;;;;;;;3.03;2.67;;;28.90;90.50;;;;;;5041860;28;20554;-87
2021/06/12 11:41:43;;;;;;;3.40;3.10;;;29.40;89.40;;;;;;5040658;28;20439;-87
2021/06/12 11:44:10;;;;;;;4.23;2.90;;;;;;;;;;5040649;28;20472;-87
2021/06/12 11:46:38;;;;;;;2.40;2.30;;;28.60;96.80;;;;;;5040516;28;20451;-82
2021/06/12 11:49:08;;;;;;;2.83;2.10;;;28.30;85.50;;;;;;5038425;28;20463;-86
2021/06/12 11:51:39;;;;;;;2.43;2.23;;;27.90;86.60;;;;;;5038633;28;20487;-89
2021/06/12 11:54:09;;;;;;;3.50;1.90;;;28.00;98.30;;;;;;5035289;28;20547;-87
2021/06/12 11:56:39;;;;;;;2.20;2.10;;;28.60;93.40;;;;;;5039828;28;20447;-89
2021/06/12 11:59:09;;;;;;;1.90;1.80;;;28.50;96.60;;;;;;5043356;28;20486;-87
2021/06/12 12:01:41;;;;;;;2.20;1.97;;;28.90;95.80;;;;;;5035263;28;20451;-86
2021/06/12 12:04:09;;;;;;;1.70;1.60;;;29.00;95.80;;;;;;5034951;28;20451;-87
2021/06/12 12:06:37;;;;;;;3.43;1.77;;;28.70;91.80;;;;;;5034587;28;20448;-88
2021/06/12 12:09:05;;;;;;;3.83;2.27;;;29.20;92.80;;;;;;5032857;28;20444;-88
2021/06/12 12:11:32;;;;;;;2.63;2.20;;;28.50;96.50;;;;;;5034965;28;20498;-86
2021/06/12 12:14:04;;;;;;;2.30;2.10;;;28.90;97.00;;;;;;5038072;28;20447;-86
2021/06/12 12:16:32;;;;;;;2.80;2.10;;;28.60;96.80;;;;;;5036715;28;20452;-85
2021/06/12 12:19:00;;;;;;;2.50;2.00;;;29.00;81.30;;;;;;5036547;28;20494;-85
2021/06/12 12:21:31;;;;;;;2.40;2.20;;;29.20;92.70;;;;;;5044445;28;20599;-87
2021/06/12 12:23:59;;;;;;;2.17;2.07;;;28.70;97.10;;;;;;5041566;28;20455;-87
2021/06/12 12:26:25;;;;;;;2.50;2.30;;;;;;;;;;5035813;28;20454;-87
2021/06/12 12:28:52;;;;;;;2.20;2.10;;;29.30;94.40;;;;;;5035740;28;20487;-86
2021/06/12 12:31:19;;;;;;;1.93;1.83;;;29.10;82.30;;;;;;5040392;28;20506;-90
2021/06/12 12:33:48;;;;;;;2.23;2.03;;;28.10;84.70;;;;;;5037319;28;20451;-89
2021/06/12 12:36:15;;;;;;;2.10;2.00;;;28.30;96.80;;;;;;5038437;28;20522;-87
2021/06/12 12:38:43;;;;;;;1.83;1.73;;;27.60;93.00;;;;;;5035944;28;20509;-92
2021/06/12 12:41:11;;;;;;;2.40;2.10;;;28.00;84.40;;;;;;5034709;28;20967;-88
2021/06/12 12:43:38;;;;;;;2.10;2.00;;;28.30;85.60;;;;;;5035992;28;21009;-90
2021/06/12 12:46:06;;;;;;;3.30;1.97;;;28.00;98.50;;;;;;5035003;28;20486;-95
2021/06/12 12:48:42;;;;;;;1.90;1.70;;;28.10;98.30;;;;;;5039024;28;20463;-91
2021/06/12 12:51:09;;;;;;;6.30;2.17;;;28.10;97.60;;;;;;5035332;28;21179;-88
2021/06/12 12:53:40;;;;;;;2.03;1.40;;;28.00;97.70;;;;;;5030047;28;20466;-87
2021/06/12 12:56:09;;;;;;;2.33;1.50;;;28.30;97.80;;;;;;5034089;28;20520;-86
2021/06/12 12:58:37;;;;;;;1.77;1.40;;;28.00;97.90;;;;;;5035160;28;20462;-88
2021/06/12 13:01:06;;;;;;;1.50;1.40;;;28.30;97.00;;;;;;5034901;28;20459;-88
2021/06/12 13:03:42;;;;;;;2.23;2.03;;;27.90;97.60;;;;;;5035962;28;20442;-88
2021/06/12 13:06:32;;;;;;;2.20;1.40;;;28.10;98.50;;;;;;5035025;28;20455;-86
2021/06/12 13:09:12;;;;;;;1.97;1.73;;;27.20;98.30;;;;;;5034983;28;20490;-89
2021/06/12 13:11:45;;;;;;;1.73;1.33;;;;;;;;;;5036792;28;20515;-94